Seiyoh101 — JD3331 — position and weather

sailwx.info

Track history (hours):
 
Tides and Currents Weather Stations Pressure Air Temp Water Temp Dewpoint Dewpoint Depression Visibility Wind Speed Wind Dir Waves Ship Positions

Seiyoh101

Last reported at 2017-Sep-15 09:02 UTC. Time now 2017-Sep-20 18:18 UTC.
Position N 34°37' E 135°02'.

Length 60 m.

Type: Tanker. MMSI: 431003382.

Date/timePositionNaut miles runAvg speedWind from/ knotsBaromVisibWave heightAir tempDewpointWater temp
2017-Sep-15 09:02N 34°37' E 135°02'112.0
2017-Sep-15 08:56N 34°36' E 135°03'510.7
2017-Sep-15 08:29N 34°35' E 135°09'510.7
2017-Sep-15 08:00N 34°34' E 135°15'510.6
2017-Sep-15 07:29N 34°34' E 135°22'25 3.2
2017-Sep-14 23:46N 34°15' E 135°03'310.8
2017-Sep-14 23:29N 34°12' E 135°03'236 5.7
2017-Sep-13 05:53N 35°07' E 139°41'511.1
2017-Sep-13 05:28N 35°10' E 139°45'511.3
2017-Sep-13 05:00N 35°16' E 139°46'611.9
2017-Sep-13 04:30N 35°21' E 139°42'510.9
2017-Sep-13 04:00N 35°26' E 139°45'4 0.8
2017-Sep-12 23:01N 35°23' E 139°49'1 7.1
2017-Sep-12 22:52N 35°24' E 139°48'6 6.0
2017-Sep-12 21:49N 35°19' E 139°44'3 7.7
2017-Sep-12 21:29N 35°16' E 139°46'4 8.6
2017-Sep-12 21:00N 35°12' E 139°47'4 8.3
2017-Sep-12 20:30N 35°08' E 139°45'4 8.4
2017-Sep-12 20:00N 35°05' E 139°41'4 8.8
2017-Sep-12 19:30N 35°02' E 139°38'  
2017-Sep-08 03:34N 34°36' E 135°03'1 9.3
2017-Sep-08 03:30N 34°36' E 135°04'510.8
2017-Sep-08 03:00N 34°36' E 135°11'611.4
2017-Sep-08 02:30N 34°37' E 135°18'511.0
2017-Sep-08 02:00N 34°38' E 135°24'1 0.5
2017-Sep-07 23:30N 34°39' E 135°25'0 0.0
2017-Sep-07 22:54N 34°39' E 135°25'2 5.5
2017-Sep-07 22:30N 34°38' E 135°23'1 2.0
2017-Sep-07 21:49N 34°39' E 135°21'0 0.0
2017-Sep-07 21:13N 34°39' E 135°21'0 0.0
2017-Sep-07 20:37N 34°39' E 135°21'0 0.0
2017-Sep-07 20:19N 34°39' E 135°21'0 0.0
2017-Sep-07 19:49N 34°39' E 135°21'0 0.0
2017-Sep-07 19:19N 34°39' E 135°21'0 0.0
2017-Sep-07 18:55N 34°39' E 135°21'0 0.0
2017-Sep-07 18:25N 34°39' E 135°21'0 0.0
2017-Sep-07 17:55N 34°39' E 135°21'0 0.0
2017-Sep-07 17:19N 34°39' E 135°21'0 0.0
2017-Sep-07 16:55N 34°39' E 135°21'0 0.0
2017-Sep-07 16:25N 34°39' E 135°21'0 0.0
2017-Sep-07 15:55N 34°39' E 135°21'0 0.0
2017-Sep-07 15:25N 34°39' E 135°21'0 0.0
2017-Sep-07 14:55N 34°39' E 135°21'0 0.0
2017-Sep-07 14:25N 34°39' E 135°21'0 0.2
2017-Sep-07 13:55N 34°39' E 135°21'0 0.0
2017-Sep-07 13:25N 34°39' E 135°21'0 0.0
2017-Sep-07 12:55N 34°39' E 135°21'0 0.0
2017-Sep-07 12:25N 34°39' E 135°21'0 0.0
2017-Sep-07 11:55N 34°39' E 135°21'0 0.0
2017-Sep-07 11:25N 34°39' E 135°21'0 0.0
2017-Sep-07 10:55N 34°39' E 135°21'0 0.0
2017-Sep-07 10:25N 34°39' E 135°21'0 0.0
2017-Sep-07 09:55N 34°39' E 135°21'0 0.0
2017-Sep-07 09:25N 34°39' E 135°21'0 0.0
2017-Sep-07 08:55N 34°39' E 135°21'0 0.0
2017-Sep-07 08:25N 34°39' E 135°21'0 0.0
2017-Sep-07 07:55N 34°39' E 135°21'0 0.0
2017-Sep-07 07:25N 34°39' E 135°21'0 0.6
2017-Sep-07 06:58N 34°39' E 135°21'28 2.9
2017-Sep-06 21:07N 34°15' E 135°02'111.9
2017-Sep-06 20:59N 34°13' E 135°03'  
Track history (hours):
 
Tides and Currents Weather Stations Pressure Air Temp Water Temp Dewpoint Dewpoint Depression Visibility Wind Speed Wind Dir Waves Ship Positions

Seiyoh101

Last reported at 2017-Sep-15 09:02 UTC. Time now 2017-Sep-20 18:18 UTC.
Position N 34°37' E 135°02'.

Length 60 m.

Type: Tanker. MMSI: 431003382.

Date/timePositionNaut miles runAvg speedWind from/ knotsBaromVisibWave heightAir tempDewpointWater temp
2017-Sep-15 09:02N 34°37' E 135°02'112.0
2017-Sep-15 08:56N 34°36' E 135°03'510.7
2017-Sep-15 08:29N 34°35' E 135°09'510.7
2017-Sep-15 08:00N 34°34' E 135°15'510.6
2017-Sep-15 07:29N 34°34' E 135°22'25 3.2
2017-Sep-14 23:46N 34°15' E 135°03'310.8
2017-Sep-14 23:29N 34°12' E 135°03'236 5.7
2017-Sep-13 05:53N 35°07' E 139°41'511.1
2017-Sep-13 05:28N 35°10' E 139°45'511.3
2017-Sep-13 05:00N 35°16' E 139°46'611.9
2017-Sep-13 04:30N 35°21' E 139°42'510.9
2017-Sep-13 04:00N 35°26' E 139°45'4 0.8
2017-Sep-12 23:01N 35°23' E 139°49'1 7.1
2017-Sep-12 22:52N 35°24' E 139°48'6 6.0
2017-Sep-12 21:49N 35°19' E 139°44'3 7.7
2017-Sep-12 21:29N 35°16' E 139°46'4 8.6
2017-Sep-12 21:00N 35°12' E 139°47'4 8.3
2017-Sep-12 20:30N 35°08' E 139°45'4 8.4
2017-Sep-12 20:00N 35°05' E 139°41'4 8.8
2017-Sep-12 19:30N 35°02' E 139°38'  
2017-Sep-08 03:34N 34°36' E 135°03'1 9.3
2017-Sep-08 03:30N 34°36' E 135°04'510.8
2017-Sep-08 03:00N 34°36' E 135°11'611.4
2017-Sep-08 02:30N 34°37' E 135°18'511.0
2017-Sep-08 02:00N 34°38' E 135°24'1 0.5
2017-Sep-07 23:30N 34°39' E 135°25'0 0.0
2017-Sep-07 22:54N 34°39' E 135°25'2 5.5
2017-Sep-07 22:30N 34°38' E 135°23'1 2.0
2017-Sep-07 21:49N 34°39' E 135°21'0 0.0
2017-Sep-07 21:13N 34°39' E 135°21'0 0.0
2017-Sep-07 20:37N 34°39' E 135°21'0 0.0
2017-Sep-07 20:19N 34°39' E 135°21'0 0.0
2017-Sep-07 19:49N 34°39' E 135°21'0 0.0
2017-Sep-07 19:19N 34°39' E 135°21'0 0.0
2017-Sep-07 18:55N 34°39' E 135°21'0 0.0
2017-Sep-07 18:25N 34°39' E 135°21'0 0.0
2017-Sep-07 17:55N 34°39' E 135°21'0 0.0
2017-Sep-07 17:19N 34°39' E 135°21'0 0.0
2017-Sep-07 16:55N 34°39' E 135°21'0 0.0
2017-Sep-07 16:25N 34°39' E 135°21'0 0.0
2017-Sep-07 15:55N 34°39' E 135°21'0 0.0
2017-Sep-07 15:25N 34°39' E 135°21'0 0.0
2017-Sep-07 14:55N 34°39' E 135°21'0 0.0
2017-Sep-07 14:25N 34°39' E 135°21'0 0.2
2017-Sep-07 13:55N 34°39' E 135°21'0 0.0
2017-Sep-07 13:25N 34°39' E 135°21'0 0.0
2017-Sep-07 12:55N 34°39' E 135°21'0 0.0
2017-Sep-07 12:25N 34°39' E 135°21'0 0.0
2017-Sep-07 11:55N 34°39' E 135°21'0 0.0
2017-Sep-07 11:25N 34°39' E 135°21'0 0.0
2017-Sep-07 10:55N 34°39' E 135°21'0 0.0
2017-Sep-07 10:25N 34°39' E 135°21'0 0.0
2017-Sep-07 09:55N 34°39' E 135°21'0 0.0
2017-Sep-07 09:25N 34°39' E 135°21'0 0.0
2017-Sep-07 08:55N 34°39' E 135°21'0 0.0
2017-Sep-07 08:25N 34°39' E 135°21'0 0.0
2017-Sep-07 07:55N 34°39' E 135°21'0 0.0
2017-Sep-07 07:25N 34°39' E 135°21'0 0.6
2017-Sep-07 06:58N 34°39' E 135°21'28 2.9
2017-Sep-06 21:07N 34°15' E 135°02'111.9
2017-Sep-06 20:59N 34°13' E 135°03'  

Dump ship's entire track history